createdAt,value
2023-05-03T00:02:10.686Z,53.32
2023-05-03T00:04:41.833Z,53.45
2023-05-03T00:07:11.053Z,53.44
2023-05-03T00:09:41.646Z,53.90
2023-05-03T00:12:10.782Z,53.61
2023-05-03T00:14:40.082Z,53.76
2023-05-03T00:17:09.280Z,54.32
2023-05-03T00:19:39.919Z,54.47
2023-05-03T00:22:09.566Z,54.34
2023-05-03T00:24:38.741Z,54.02
2023-05-03T00:27:09.620Z,54.84
2023-05-03T00:29:38.762Z,54.79
2023-05-03T00:32:08.033Z,55.43
2023-05-03T00:34:37.205Z,55.47
2023-05-03T00:37:06.954Z,54.87
2023-05-03T00:39:36.464Z,55.66
2023-05-03T00:42:05.787Z,55.66
2023-05-03T00:44:36.411Z,55.38
2023-05-03T00:47:05.709Z,55.67
2023-05-03T00:49:35.306Z,56.02
2023-05-03T00:52:04.797Z,55.60
2023-05-03T00:54:35.601Z,55.57
2023-05-03T00:57:07.087Z,55.80
2023-05-03T00:59:39.431Z,56.17
2023-05-03T01:02:08.839Z,56.05
2023-05-03T01:04:39.709Z,56.08
2023-05-03T01:07:17.503Z,55.47
2023-05-03T01:09:57.533Z,56.26
2023-05-03T01:12:40.152Z,56.44
2023-05-03T01:15:17.882Z,56.10
2023-05-03T01:17:52.964Z,56.34
2023-05-03T01:20:26.215Z,56.90
2023-05-03T01:23:06.860Z,57.08
2023-05-03T01:25:37.483Z,57.45
2023-05-03T01:28:06.634Z,56.57
2023-05-03T01:30:37.839Z,57.14
2023-05-03T01:33:15.145Z,57.25
2023-05-03T01:35:51.276Z,57.97
2023-05-03T01:38:20.666Z,57.97
2023-05-03T01:40:53.733Z,57.55
2023-05-03T01:43:24.387Z,58.05
2023-05-03T01:45:56.481Z,57.72
2023-05-03T01:48:25.673Z,57.86
2023-05-03T01:50:54.972Z,57.71
2023-05-03T01:53:27.240Z,58.30
2023-05-03T01:55:57.983Z,59.19
2023-05-03T01:58:27.376Z,59.29
2023-05-03T02:00:56.471Z,59.53
2023-05-03T02:03:25.609Z,59.76
2023-05-03T02:05:54.652Z,60.33
2023-05-03T02:08:23.806Z,60.31
2023-05-03T02:10:52.793Z,61.15
2023-05-03T02:13:26.305Z,61.62
2023-05-03T02:15:55.756Z,62.15
2023-05-03T02:18:26.524Z,62.33
2023-05-03T02:20:55.606Z,62.33
2023-05-03T02:23:24.792Z,62.88
2023-05-03T02:25:56.420Z,63.54
2023-05-03T02:28:27.050Z,62.94
2023-05-03T02:30:56.285Z,63.83
2023-05-03T02:33:26.209Z,62.92
2023-05-03T02:35:55.436Z,63.75
2023-05-03T02:38:24.603Z,63.33
2023-05-03T02:40:53.678Z,63.55
2023-05-03T02:43:22.899Z,64.66
2023-05-03T02:45:53.675Z,65.62
2023-05-03T02:48:22.911Z,66.26
2023-05-03T02:50:52.373Z,66.86
2023-05-03T02:53:21.436Z,66.84
2023-05-03T02:55:51.534Z,67.47
2023-05-03T02:58:20.767Z,68.56
2023-05-03T03:00:49.967Z,69.11
2023-05-03T03:03:21.791Z,69.23
2023-05-03T03:05:52.250Z,68.18
2023-05-03T03:08:21.373Z,69.16
2023-05-03T03:10:51.315Z,68.42
2023-05-03T03:13:20.445Z,69.54
2023-05-03T03:15:49.981Z,69.33
2023-05-03T03:18:21.625Z,68.94
2023-05-03T03:20:50.679Z,68.66
2023-05-03T03:23:21.905Z,68.60
2023-05-03T03:25:51.191Z,69.94
2023-05-03T03:28:20.689Z,70.47
2023-05-03T03:30:50.220Z,71.29
2023-05-03T03:33:28.533Z,70.89
2023-05-03T03:36:06.906Z,70.55
2023-05-03T03:38:41.345Z,70.49
2023-05-03T03:41:13.155Z,71.25
2023-05-03T03:43:42.666Z,70.62
2023-05-03T03:46:18.492Z,70.57
2023-05-03T03:48:51.336Z,71.17
2023-05-03T03:51:21.238Z,69.98
2023-05-03T03:53:50.433Z,70.91
2023-05-03T03:56:20.058Z,71.84
2023-05-03T03:58:51.502Z,71.15
2023-05-03T04:01:20.796Z,71.60
2023-05-03T04:03:51.491Z,70.70
2023-05-03T04:06:21.195Z,71.17
2023-05-03T04:08:51.328Z,70.98
2023-05-03T04:11:21.845Z,69.66
2023-05-03T04:13:56.409Z,69.48
2023-05-03T04:16:26.805Z,69.79
2023-05-03T04:18:58.292Z,71.20
2023-05-03T04:21:28.646Z,71.45
2023-05-03T04:23:58.242Z,71.29
2023-05-03T04:26:32.148Z,71.35
2023-05-03T04:29:20.227Z,70.73
2023-05-03T04:31:49.932Z,71.18
2023-05-03T04:34:21.126Z,71.63
2023-05-03T04:36:54.153Z,71.28
2023-05-03T04:39:24.369Z,72.40
2023-05-03T04:41:54.826Z,73.48
2023-05-03T04:44:24.553Z,72.45
2023-05-03T04:46:53.926Z,73.47
2023-05-03T04:49:24.915Z,74.55
2023-05-03T04:51:55.737Z,75.34
2023-05-03T04:54:26.977Z,75.02
2023-05-03T04:56:57.034Z,75.55
2023-05-03T04:59:26.345Z,74.80
2023-05-03T05:01:55.539Z,75.85
2023-05-03T05:04:26.505Z,74.83
2023-05-03T05:06:56.246Z,76.13
2023-05-03T05:09:31.396Z,75.68
2023-05-03T05:12:04.288Z,76.49
2023-05-03T05:14:38.763Z,75.51
2023-05-03T05:17:10.397Z,75.74
2023-05-03T05:19:41.261Z,77.24
2023-05-03T05:22:11.106Z,77.57
2023-05-03T05:24:52.184Z,78.96
2023-05-03T05:27:23.652Z,80.18
2023-05-03T05:29:55.475Z,81.98
2023-05-03T05:32:24.873Z,83.56
2023-05-03T05:34:56.672Z,83.76
2023-05-03T05:37:29.135Z,86.02
2023-05-03T05:40:02.371Z,86.06
2023-05-03T05:42:37.512Z,88.50
2023-05-03T05:45:09.302Z,88.97
2023-05-03T05:47:47.094Z,90.81
2023-05-03T05:50:19.055Z,91.71
2023-05-03T05:52:55.569Z,94.37
2023-05-03T05:55:27.729Z,97.14
2023-05-03T05:57:58.367Z,100.00
2023-05-03T06:00:36.771Z,100.00
2023-05-03T06:03:07.243Z,100.00
2023-05-03T06:05:38.824Z,100.00
2023-05-03T06:08:08.030Z,100.00
2023-05-03T06:10:37.231Z,100.00
2023-05-03T06:13:06.464Z,100.00
2023-05-03T06:15:36.693Z,100.00
2023-05-03T06:18:06.332Z,100.00
2023-05-03T06:20:35.636Z,100.00
2023-05-03T06:23:06.255Z,100.00
2023-05-03T06:25:36.401Z,100.00
2023-05-03T06:28:06.598Z,100.00
2023-05-03T06:30:37.566Z,100.00
2023-05-03T06:33:14.396Z,100.00
2023-05-03T06:35:47.399Z,100.00
2023-05-03T06:38:20.586Z,100.00
2023-05-03T06:40:50.704Z,100.00
2023-05-03T06:43:21.169Z,100.00
2023-05-03T06:46:02.841Z,100.00
2023-05-03T06:48:32.055Z,100.00
2023-05-03T06:51:01.330Z,100.00
2023-05-03T06:53:32.191Z,100.00
2023-05-03T06:56:01.786Z,100.00
2023-05-03T06:58:31.065Z,100.00
2023-05-03T07:01:00.309Z,100.00
2023-05-03T07:03:29.618Z,100.00
2023-05-03T07:05:59.064Z,99.60
2023-05-03T07:08:28.465Z,99.39
2023-05-03T07:10:59.021Z,98.39
2023-05-03T07:13:28.444Z,100.00
2023-05-03T07:15:57.719Z,100.00
2023-05-03T07:18:27.247Z,100.00
2023-05-03T07:20:57.006Z,100.00
2023-05-03T07:23:26.201Z,100.00
2023-05-03T07:25:55.814Z,100.00
2023-05-03T07:28:26.764Z,100.00
2023-05-03T07:30:55.937Z,99.59
2023-05-03T07:33:25.562Z,100.00
2023-05-03T07:35:54.866Z,99.76
2023-05-03T07:38:23.869Z,99.40
2023-05-03T07:40:55.660Z,100.00
2023-05-03T07:43:26.227Z,96.67
2023-05-03T07:45:55.439Z,97.08
2023-05-03T07:48:24.548Z,96.05
2023-05-03T07:50:53.812Z,93.17
2023-05-03T07:53:23.029Z,92.37
2023-05-03T07:55:55.909Z,91.50
2023-05-03T07:58:38.890Z,88.54
2023-05-03T08:01:09.291Z,90.50
2023-05-03T08:03:38.824Z,88.65
2023-05-03T08:06:08.637Z,88.12
2023-05-03T08:08:38.542Z,87.96
2023-05-03T08:11:07.645Z,90.28
2023-05-03T08:13:38.250Z,90.64
2023-05-03T08:16:08.673Z,87.04
2023-05-03T08:18:37.826Z,88.21
2023-05-03T08:21:09.154Z,88.71
2023-05-03T08:23:38.213Z,89.15
2023-05-03T08:26:08.007Z,89.36
2023-05-03T08:28:38.872Z,89.01
2023-05-03T08:31:08.249Z,91.20
2023-05-03T08:33:37.649Z,88.63
2023-05-03T08:36:07.716Z,90.29
2023-05-03T08:38:37.075Z,93.07
2023-05-03T08:41:16.656Z,89.97
2023-05-03T08:43:51.887Z,90.03
2023-05-03T08:46:21.214Z,88.67
2023-05-03T08:48:51.523Z,86.45
2023-05-03T08:51:21.860Z,83.26
2023-05-03T08:53:54.024Z,79.48
2023-05-03T08:56:29.611Z,81.94
2023-05-03T08:59:07.924Z,78.92
2023-05-03T09:01:38.043Z,74.37
2023-05-03T09:04:08.013Z,75.65
2023-05-03T09:06:38.182Z,77.67
2023-05-03T09:09:09.851Z,77.00
2023-05-03T09:11:40.377Z,77.69
2023-05-03T09:14:14.490Z,75.60
2023-05-03T09:16:46.884Z,76.39
2023-05-03T09:19:19.368Z,79.96
2023-05-03T09:21:49.302Z,78.57
2023-05-03T09:24:19.973Z,80.78
2023-05-03T09:26:51.342Z,78.81
2023-05-03T09:29:31.591Z,79.76
2023-05-03T09:32:03.013Z,77.95
2023-05-03T09:34:32.345Z,75.88
2023-05-03T09:37:01.666Z,75.63
2023-05-03T09:39:31.472Z,74.37
2023-05-03T09:42:12.499Z,70.54
2023-05-03T09:44:49.351Z,67.42
2023-05-03T09:47:20.054Z,70.58
2023-05-03T09:49:49.848Z,67.42
2023-05-03T09:52:19.085Z,68.83
2023-05-03T09:54:49.175Z,65.07
2023-05-03T09:57:18.914Z,66.37
2023-05-03T09:59:50.985Z,66.47
2023-05-03T10:02:20.390Z,63.93
2023-05-03T10:04:52.762Z,62.97
2023-05-03T10:07:24.699Z,61.76
2023-05-03T10:09:53.961Z,61.85
2023-05-03T10:12:23.528Z,64.09
2023-05-03T10:14:56.741Z,62.54
2023-05-03T10:17:43.518Z,62.19
2023-05-03T10:20:23.258Z,62.54
2023-05-03T10:23:12.115Z,66.14
2023-05-03T10:26:02.413Z,66.86
2023-05-03T10:28:35.285Z,70.30
2023-05-03T10:31:06.193Z,70.12
2023-05-03T10:33:36.230Z,66.58
2023-05-03T10:36:10.982Z,66.38
2023-05-03T10:38:40.331Z,63.84
2023-05-03T10:41:09.496Z,63.63
2023-05-03T10:43:47.135Z,63.20
2023-05-03T10:46:36.351Z,62.27
2023-05-03T10:49:19.886Z,61.55
2023-05-03T10:51:49.578Z,63.00
2023-05-03T10:54:19.812Z,66.32
2023-05-03T10:56:54.675Z,64.90
2023-05-03T10:59:25.292Z,66.44
2023-05-03T11:01:56.385Z,69.32
2023-05-03T11:04:38.400Z,68.82
2023-05-03T11:07:07.852Z,65.11
2023-05-03T11:09:37.086Z,65.68
2023-05-03T11:12:08.878Z,65.06
2023-05-03T11:14:39.931Z,66.68
2023-05-03T11:17:11.160Z,65.33
2023-05-03T11:19:40.198Z,67.39
2023-05-03T11:22:10.068Z,69.19
2023-05-03T11:24:39.488Z,71.12
2023-05-03T11:27:08.853Z,67.97
2023-05-03T11:29:38.145Z,68.48
2023-05-03T11:32:12.024Z,66.37
2023-05-03T11:34:41.515Z,68.17
2023-05-03T11:37:11.172Z,66.04
2023-05-03T11:39:40.707Z,65.45
2023-05-03T11:42:10.156Z,64.77
2023-05-03T11:44:39.646Z,66.18
2023-05-03T11:47:09.696Z,67.69
2023-05-03T11:49:40.993Z,65.40
2023-05-03T11:52:10.278Z,67.71
2023-05-03T11:54:39.517Z,67.31
2023-05-03T11:57:14.706Z,65.84
2023-05-03T11:59:45.030Z,66.81
2023-05-03T12:02:15.500Z,68.28
2023-05-03T12:04:46.679Z,68.44
2023-05-03T12:07:33.373Z,60.97
2023-05-03T12:10:19.557Z,55.71
2023-05-03T12:12:57.003Z,54.47
2023-05-03T12:15:33.366Z,51.21
2023-05-03T12:18:04.886Z,50.73
2023-05-03T12:23:10.949Z,49.87
2023-05-03T12:25:44.428Z,49.50
2023-05-03T12:28:19.434Z,51.01
2023-05-03T12:30:53.220Z,50.37
2023-05-03T12:33:23.442Z,49.63
2023-05-03T12:35:54.715Z,49.97
2023-05-03T12:38:25.462Z,50.04
2023-05-03T12:40:55.399Z,50.64
2023-05-03T12:43:24.718Z,50.74
2023-05-03T12:46:16.567Z,49.54
2023-05-03T12:48:46.506Z,50.29
2023-05-03T12:51:19.914Z,53.21
2023-05-03T12:53:55.113Z,54.94
2023-05-03T12:56:25.799Z,57.77
2023-05-03T13:04:36.412Z,65.95
2023-05-03T13:06:57.894Z,70.85
2023-05-03T13:09:46.138Z,71.87
2023-05-03T13:12:20.673Z,74.58
2023-05-03T13:14:51.416Z,74.27
2023-05-03T13:17:23.236Z,76.36
2023-05-03T13:19:53.018Z,77.84
2023-05-03T13:22:24.512Z,79.55
2023-05-03T13:24:56.802Z,82.48
2023-05-03T13:27:26.105Z,83.58
2023-05-03T13:29:55.522Z,88.42
2023-05-03T13:32:24.773Z,88.97
2023-05-03T13:34:57.008Z,91.14
2023-05-03T13:37:27.826Z,91.81
2023-05-03T13:39:56.949Z,96.49
2023-05-03T13:42:26.219Z,100.00
2023-05-03T13:44:55.647Z,100.00
2023-05-03T13:47:33.083Z,100.00
2023-05-03T13:50:11.972Z,100.00
2023-05-03T13:52:44.925Z,100.00
2023-05-03T13:55:14.412Z,100.00
2023-05-03T13:57:44.042Z,100.00
2023-05-03T14:00:14.890Z,100.00
2023-05-03T14:02:46.407Z,100.00
2023-05-03T14:05:15.790Z,100.00
2023-05-03T14:07:46.360Z,100.00
2023-05-03T14:10:15.877Z,100.00
2023-05-03T14:12:45.471Z,100.00
2023-05-03T14:15:15.325Z,100.00
2023-05-03T14:17:48.233Z,100.00
2023-05-03T14:20:17.995Z,100.00
2023-05-03T14:22:48.749Z,100.00
2023-05-03T14:25:18.077Z,100.00
2023-05-03T14:27:48.912Z,100.00
2023-05-03T14:30:18.344Z,100.00
2023-05-03T14:32:47.984Z,100.00
2023-05-03T14:35:18.605Z,100.00
2023-05-03T14:37:49.498Z,100.00
2023-05-03T14:40:18.773Z,100.00
2023-05-03T14:42:49.101Z,100.00
2023-05-03T14:45:18.749Z,100.00
2023-05-03T14:47:48.184Z,100.00
2023-05-03T14:50:17.499Z,100.00
2023-05-03T14:52:46.741Z,100.00
2023-05-03T14:55:17.835Z,100.00
2023-05-03T14:57:47.670Z,100.00
2023-05-03T15:00:18.606Z,100.00
2023-05-03T15:02:48.066Z,100.00
2023-05-03T15:05:17.369Z,100.00
2023-05-03T15:07:46.438Z,100.00
2023-05-03T15:10:17.797Z,100.00
2023-05-03T15:12:48.091Z,100.00
2023-05-03T15:15:17.672Z,100.00
2023-05-03T15:17:46.754Z,100.00
2023-05-03T15:20:17.043Z,100.00
2023-05-03T15:22:46.305Z,100.00
2023-05-03T15:25:16.855Z,100.00
2023-05-03T15:27:46.079Z,100.00
2023-05-03T15:30:17.635Z,100.00
2023-05-03T15:32:46.928Z,100.00
2023-05-03T15:35:16.577Z,100.00
2023-05-03T15:37:46.772Z,100.00
2023-05-03T15:40:18.906Z,100.00
2023-05-03T15:42:49.715Z,100.00
2023-05-03T15:45:19.553Z,100.00
2023-05-03T15:47:48.805Z,100.00
2023-05-03T15:50:18.293Z,100.00
2023-05-03T15:52:47.703Z,100.00
2023-05-03T15:55:19.665Z,100.00
2023-05-03T15:57:52.382Z,100.00
2023-05-03T16:00:23.247Z,100.00
2023-05-03T16:02:53.380Z,100.00
2023-05-03T16:05:23.425Z,100.00
2023-05-03T16:07:53.138Z,100.00
2023-05-03T16:10:25.039Z,100.00
2023-05-03T16:12:54.358Z,100.00
2023-05-03T16:15:23.515Z,100.00
2023-05-03T16:17:54.380Z,100.00
2023-05-03T16:20:23.708Z,100.00
2023-05-03T16:22:53.294Z,100.00
2023-05-03T16:25:24.323Z,100.00
2023-05-03T16:27:53.724Z,100.00
2023-05-03T16:30:23.019Z,100.00
2023-05-03T16:32:52.810Z,100.00
2023-05-03T16:35:22.462Z,100.00
2023-05-03T16:37:53.170Z,100.00
2023-05-03T16:40:24.511Z,100.00
2023-05-03T16:42:53.721Z,100.00
2023-05-03T16:45:23.081Z,100.00
2023-05-03T16:47:53.235Z,100.00
2023-05-03T16:50:22.754Z,100.00
2023-05-03T16:52:52.124Z,100.00
2023-05-03T16:55:25.091Z,100.00
2023-05-03T16:57:54.512Z,100.00
2023-05-03T17:00:23.776Z,100.00
2023-05-03T17:02:53.186Z,100.00
2023-05-03T17:05:22.952Z,100.00
2023-05-03T17:07:52.369Z,100.00
2023-05-03T17:10:21.767Z,100.00
2023-05-03T17:12:52.898Z,100.00
2023-05-03T17:15:22.640Z,100.00
2023-05-03T17:17:52.304Z,100.00
2023-05-03T17:20:22.017Z,100.00
2023-05-03T17:22:51.302Z,100.00
2023-05-03T17:25:21.419Z,100.00
2023-05-03T17:27:53.774Z,100.00
2023-05-03T17:30:23.691Z,100.00
2023-05-03T17:32:53.037Z,100.00
2023-05-03T17:35:25.335Z,100.00
2023-05-03T17:37:54.564Z,100.00
2023-05-03T17:40:23.590Z,100.00
2023-05-03T17:42:54.322Z,100.00
2023-05-03T17:45:23.517Z,100.00
2023-05-03T17:47:52.638Z,100.00
2023-05-03T17:50:21.732Z,100.00
2023-05-03T17:52:51.572Z,100.00
2023-05-03T17:55:21.079Z,100.00
2023-05-03T17:57:50.259Z,100.00
2023-05-03T18:00:23.012Z,100.00
2023-05-03T18:02:52.537Z,100.00
2023-05-03T18:05:21.999Z,100.00
2023-05-03T18:07:51.308Z,100.00
2023-05-03T18:10:20.624Z,100.00
2023-05-03T18:12:49.879Z,100.00
2023-05-03T18:15:20.741Z,100.00
2023-05-03T18:17:50.020Z,100.00
2023-05-03T18:20:19.747Z,100.00
2023-05-03T18:22:49.056Z,100.00
2023-05-03T18:25:18.457Z,100.00
2023-05-03T18:27:47.940Z,100.00
2023-05-03T18:30:17.684Z,100.00
2023-05-03T18:32:48.700Z,100.00
2023-05-03T18:35:18.709Z,100.00
2023-05-03T18:37:47.866Z,100.00
2023-05-03T18:40:17.918Z,100.00
2023-05-03T18:42:47.254Z,100.00
2023-05-03T18:45:18.040Z,100.00
2023-05-03T18:47:50.973Z,100.00
2023-05-03T18:50:20.811Z,100.00
2023-05-03T18:52:51.387Z,100.00
2023-05-03T18:55:20.862Z,100.00
2023-05-03T18:57:50.088Z,100.00
2023-05-03T19:00:19.706Z,100.00
2023-05-03T19:02:50.263Z,100.00
2023-05-03T19:05:19.523Z,100.00
2023-05-03T19:07:48.984Z,100.00
2023-05-03T19:10:20.189Z,100.00
2023-05-03T19:12:49.611Z,100.00
2023-05-03T19:15:18.964Z,100.00
2023-05-03T19:17:49.664Z,100.00
2023-05-03T19:20:19.141Z,100.00
2023-05-03T19:22:49.180Z,100.00
2023-05-03T19:25:18.463Z,100.00
2023-05-03T19:27:47.627Z,100.00
2023-05-03T19:30:17.118Z,100.00
2023-05-03T19:32:46.386Z,100.00
2023-05-03T19:35:17.324Z,100.00
2023-05-03T19:37:46.524Z,100.00
2023-05-03T19:40:16.182Z,100.00
2023-05-03T19:42:45.446Z,100.00
2023-05-03T19:45:14.851Z,100.00
2023-05-03T19:47:44.701Z,100.00
2023-05-03T19:50:14.633Z,100.00
2023-05-03T19:52:45.369Z,100.00
2023-05-03T19:55:14.687Z,100.00
2023-05-03T19:57:43.796Z,100.00
2023-05-03T20:00:15.968Z,100.00
2023-05-03T20:02:45.291Z,100.00
2023-05-03T20:05:14.514Z,100.00
2023-05-03T20:07:45.227Z,100.00
2023-05-03T20:10:14.543Z,100.00
2023-05-03T20:12:43.696Z,100.00
2023-05-03T20:15:13.391Z,100.00
2023-05-03T20:17:42.632Z,100.00
2023-05-03T20:20:13.024Z,100.00
2023-05-03T20:22:42.282Z,100.00
2023-05-03T20:25:12.928Z,100.00
2023-05-03T20:27:42.165Z,100.00
2023-05-03T20:30:11.697Z,100.00
2023-05-03T20:32:40.796Z,100.00
2023-05-03T20:35:11.525Z,100.00
2023-05-03T20:37:41.005Z,100.00
2023-05-03T20:40:11.743Z,100.00
2023-05-03T20:42:42.462Z,100.00
2023-05-03T20:45:12.601Z,100.00
2023-05-03T20:47:41.747Z,100.00
2023-05-03T20:50:11.184Z,100.00
2023-05-03T20:52:40.256Z,100.00
2023-05-03T20:55:10.032Z,100.00
2023-05-03T20:57:43.475Z,100.00
2023-05-03T21:00:15.982Z,100.00
2023-05-03T21:02:45.255Z,100.00
2023-05-03T21:05:14.398Z,100.00
2023-05-03T21:07:43.490Z,100.00
2023-05-03T21:10:12.633Z,100.00
2023-05-03T21:12:43.348Z,100.00
2023-05-03T21:15:13.166Z,100.00
2023-05-03T21:17:42.444Z,100.00
2023-05-03T21:20:12.299Z,100.00
2023-05-03T21:22:41.366Z,100.00
2023-05-03T21:25:11.630Z,100.00
2023-05-03T21:27:40.718Z,100.00
2023-05-03T21:30:13.897Z,100.00
2023-05-03T21:32:44.219Z,100.00
2023-05-03T21:35:13.497Z,100.00
2023-05-03T21:37:42.689Z,100.00
2023-05-03T21:40:13.594Z,100.00
2023-05-03T21:42:42.767Z,100.00
2023-05-03T21:45:15.609Z,100.00
2023-05-03T21:47:44.752Z,100.00
2023-05-03T21:50:14.388Z,100.00
2023-05-03T21:52:44.125Z,100.00
2023-05-03T21:55:13.610Z,100.00
2023-05-03T21:57:42.630Z,100.00
2023-05-03T22:00:19.062Z,100.00
2023-05-03T22:02:48.631Z,100.00
2023-05-03T22:05:18.365Z,100.00
2023-05-03T22:07:49.167Z,100.00
2023-05-03T22:10:18.894Z,100.00
2023-05-03T22:12:48.152Z,100.00
2023-05-03T22:15:18.851Z,100.00
2023-05-03T22:17:47.961Z,100.00
2023-05-03T22:20:17.226Z,100.00
2023-05-03T22:22:46.290Z,100.00
2023-05-03T22:25:24.492Z,100.00
2023-05-03T22:27:53.760Z,100.00
2023-05-03T22:30:24.766Z,100.00
2023-05-03T22:32:54.133Z,100.00
2023-05-03T22:35:23.227Z,100.00
2023-05-03T22:37:52.356Z,100.00
2023-05-03T22:40:21.549Z,100.00
2023-05-03T22:42:50.667Z,100.00
2023-05-03T22:45:19.916Z,100.00
2023-05-03T22:47:50.549Z,100.00
2023-05-03T22:50:20.435Z,100.00
2023-05-03T22:52:49.576Z,100.00
2023-05-03T22:55:19.107Z,100.00
2023-05-03T22:57:49.111Z,100.00
2023-05-03T23:00:20.315Z,100.00
2023-05-03T23:02:51.085Z,100.00
2023-05-03T23:05:20.529Z,100.00
2023-05-03T23:07:49.596Z,100.00
2023-05-03T23:10:18.785Z,100.00
2023-05-03T23:12:48.060Z,100.00
2023-05-03T23:15:17.642Z,100.00
2023-05-03T23:17:47.197Z,100.00
2023-05-03T23:20:18.015Z,100.00
2023-05-03T23:22:47.644Z,100.00
2023-05-03T23:25:17.106Z,100.00
2023-05-03T23:27:46.279Z,100.00
2023-05-03T23:30:16.016Z,100.00
2023-05-03T23:32:48.444Z,100.00
2023-05-03T23:35:19.494Z,100.00
2023-05-03T23:37:48.628Z,100.00
2023-05-03T23:40:18.008Z,100.00
2023-05-03T23:42:47.017Z,100.00
2023-05-03T23:45:16.157Z,100.00
2023-05-03T23:47:45.378Z,100.00
2023-05-03T23:50:14.881Z,100.00
2023-05-03T23:52:45.317Z,100.00
2023-05-03T23:55:14.362Z,100.00
2023-05-03T23:57:43.633Z,100.00
